createdAt,value
2019-03-21T00:00:30.034Z,10.27
2019-03-21T00:02:56.687Z,10.07
2019-03-21T00:05:27.159Z,10.63
2019-03-21T00:07:53.914Z,10.20
2019-03-21T00:10:26.256Z,9.47
2019-03-21T00:12:52.971Z,10.60
2019-03-21T00:15:25.456Z,12.20
2019-03-21T00:17:56.567Z,10.67
2019-03-21T00:20:23.190Z,9.67
2019-03-21T00:22:49.793Z,9.23
2019-03-21T00:25:21.081Z,10.00
2019-03-21T00:27:47.897Z,9.10
2019-03-21T00:30:18.691Z,9.50
2019-03-21T00:32:45.848Z,9.40
2019-03-21T00:35:13.457Z,8.90
2019-03-21T00:37:40.466Z,7.87
2019-03-21T00:40:14.040Z,9.17
2019-03-21T00:42:40.899Z,8.90
2019-03-21T00:45:13.717Z,8.17
2019-03-21T00:47:40.825Z,7.13
2019-03-21T00:50:12.935Z,7.30
2019-03-21T00:52:39.676Z,7.43
2019-03-21T00:55:11.082Z,7.20
2019-03-21T00:58:15.216Z,6.47
2019-03-21T01:00:46.702Z,7.03
2019-03-21T01:03:13.716Z,6.33
2019-03-21T01:05:41.575Z,6.40
2019-03-21T01:08:08.442Z,6.57
2019-03-21T01:10:35.018Z,6.17
2019-03-21T01:13:01.891Z,7.10
2019-03-21T01:15:28.539Z,6.60
2019-03-21T01:17:55.106Z,6.60
2019-03-21T01:20:21.801Z,7.10
2019-03-21T01:22:49.576Z,6.47
2019-03-21T01:25:19.986Z,7.10
2019-03-21T01:27:47.805Z,7.17
2019-03-21T01:30:18.331Z,8.20
2019-03-21T01:32:44.943Z,6.70
2019-03-21T01:35:11.633Z,7.27
2019-03-21T01:37:38.188Z,7.30
2019-03-21T01:40:10.572Z,7.20
2019-03-21T01:42:37.260Z,6.77
2019-03-21T01:45:09.624Z,8.17
2019-03-21T01:47:36.260Z,7.53
2019-03-21T01:50:08.630Z,7.77
2019-03-21T01:52:38.052Z,7.90
2019-03-21T01:55:09.223Z,7.50
2019-03-21T01:57:36.711Z,7.77
2019-03-21T02:00:09.045Z,8.30
2019-03-21T02:02:35.669Z,7.77
2019-03-21T02:05:06.756Z,7.10
2019-03-21T02:07:33.392Z,8.93
2019-03-21T02:10:01.370Z,8.80
2019-03-21T02:12:28.154Z,8.13
2019-03-21T02:14:54.820Z,8.47
2019-03-21T02:17:21.391Z,8.40
2019-03-21T02:19:48.070Z,7.93
2019-03-21T02:22:14.738Z,7.67
2019-03-21T02:24:41.344Z,8.87
2019-03-21T02:27:07.994Z,7.50
2019-03-21T02:29:34.564Z,8.77
2019-03-21T02:32:01.090Z,8.43
2019-03-21T02:34:27.686Z,8.27
2019-03-21T02:36:54.247Z,7.53
2019-03-21T02:39:20.867Z,9.23
2019-03-21T02:41:47.506Z,8.50
2019-03-21T02:44:14.334Z,9.63
2019-03-21T02:46:40.939Z,8.53
2019-03-21T02:49:07.538Z,9.10
2019-03-21T02:51:34.130Z,8.70
2019-03-21T02:54:00.687Z,8.93
2019-03-21T02:57:23.491Z,8.63
2019-03-21T02:59:50.100Z,8.97
2019-03-21T03:02:16.731Z,8.70
2019-03-21T03:04:43.299Z,9.10
2019-03-21T03:07:09.984Z,9.50
2019-03-21T03:09:37.731Z,8.67
2019-03-21T03:12:04.407Z,9.70
2019-03-21T03:14:30.974Z,9.37
2019-03-21T03:16:57.552Z,10.63
2019-03-21T03:19:24.148Z,10.27
2019-03-21T03:21:50.689Z,9.77
2019-03-21T03:24:18.160Z,10.30
2019-03-21T03:26:44.770Z,9.77
2019-03-21T03:29:11.424Z,10.20
2019-03-21T03:31:38.002Z,10.27
2019-03-21T03:34:04.565Z,10.33
2019-03-21T03:36:31.167Z,9.50
2019-03-21T03:38:58.317Z,9.40
2019-03-21T03:41:25.148Z,10.17
2019-03-21T03:43:52.069Z,10.73
2019-03-21T03:46:18.951Z,10.90
2019-03-21T03:48:45.533Z,10.67
2019-03-21T03:52:08.497Z,10.97
2019-03-21T03:54:35.252Z,10.83
2019-03-21T03:57:01.998Z,11.63
2019-03-21T03:59:28.733Z,10.43
2019-03-21T04:01:55.739Z,11.77
2019-03-21T04:04:25.947Z,11.30
2019-03-21T04:06:52.904Z,11.43
2019-03-21T04:09:19.914Z,10.57
2019-03-21T04:11:46.651Z,11.03
2019-03-21T04:14:13.459Z,12.17
2019-03-21T04:16:40.092Z,11.17
2019-03-21T04:19:06.711Z,10.17
2019-03-21T04:21:33.302Z,11.60
2019-03-21T04:24:00.284Z,11.33
2019-03-21T04:26:32.546Z,11.33
2019-03-21T04:28:59.129Z,11.23
2019-03-21T04:31:25.806Z,10.30
2019-03-21T04:33:57.522Z,11.00
2019-03-21T04:36:24.172Z,11.07
2019-03-21T04:38:50.739Z,11.70
2019-03-21T04:41:17.450Z,12.70
2019-03-21T04:43:44.018Z,12.23
2019-03-21T04:46:10.564Z,11.57
2019-03-21T04:48:37.216Z,11.47
2019-03-21T04:51:03.889Z,12.13
2019-03-21T04:53:30.452Z,12.33
2019-03-21T04:55:57.139Z,12.53
2019-03-21T04:58:25.199Z,11.83
2019-03-21T05:00:56.712Z,12.47
2019-03-21T05:03:27.429Z,11.77
2019-03-21T05:05:54.294Z,11.83
2019-03-21T05:08:20.840Z,12.30
2019-03-21T05:10:47.464Z,12.60
2019-03-21T05:13:14.118Z,11.90
2019-03-21T05:15:45.733Z,12.13
2019-03-21T05:18:19.234Z,11.27
2019-03-21T05:20:46.072Z,11.83
2019-03-21T05:23:12.648Z,11.27
2019-03-21T05:25:39.235Z,12.33
2019-03-21T05:28:05.934Z,13.20
2019-03-21T05:30:36.342Z,12.63
2019-03-21T05:33:03.172Z,11.27
2019-03-21T05:35:29.786Z,12.43
2019-03-21T05:37:56.450Z,12.57
2019-03-21T05:40:23.430Z,13.23
2019-03-21T05:42:55.805Z,13.00
2019-03-21T05:45:23.257Z,13.17
2019-03-21T05:47:49.835Z,13.73
2019-03-21T05:50:16.725Z,13.27
2019-03-21T05:52:43.439Z,13.97
2019-03-21T05:55:11.404Z,12.50
2019-03-21T05:57:38.179Z,13.03
2019-03-21T06:00:10.489Z,12.17
2019-03-21T06:02:37.200Z,12.73
2019-03-21T06:05:05.426Z,14.70
2019-03-21T06:07:37.858Z,14.03
2019-03-21T06:10:10.164Z,12.17
2019-03-21T06:12:40.781Z,13.50
2019-03-21T06:15:28.973Z,13.23
2019-03-21T06:18:01.299Z,14.27
2019-03-21T06:20:33.693Z,13.87
2019-03-21T06:23:06.060Z,14.70
2019-03-21T06:25:36.530Z,13.77
2019-03-21T06:28:03.103Z,14.53
2019-03-21T06:30:29.711Z,15.37
2019-03-21T06:32:56.410Z,13.87
2019-03-21T06:35:23.240Z,14.00
2019-03-21T06:37:50.229Z,14.50
2019-03-21T06:40:17.140Z,13.67
2019-03-21T06:42:43.688Z,13.57
2019-03-21T06:45:10.611Z,13.43
2019-03-21T06:47:37.197Z,13.07
2019-03-21T06:50:05.829Z,13.77
2019-03-21T06:52:32.507Z,14.83
2019-03-21T06:54:59.906Z,14.10
2019-03-21T06:57:27.095Z,12.80
2019-03-21T06:59:53.678Z,15.00
2019-03-21T07:02:21.342Z,13.03
2019-03-21T07:04:47.961Z,13.60
2019-03-21T07:07:14.600Z,13.20
2019-03-21T07:09:41.179Z,13.80
2019-03-21T07:12:08.037Z,12.70
2019-03-21T07:14:34.699Z,13.00
2019-03-21T07:17:02.958Z,14.20
2019-03-21T07:19:30.637Z,14.50
2019-03-21T07:21:57.196Z,15.83
2019-03-21T07:24:23.835Z,13.60
2019-03-21T07:26:50.607Z,13.07
2019-03-21T07:29:17.359Z,13.43
2019-03-21T07:31:43.937Z,14.10
2019-03-21T07:34:10.548Z,12.13
2019-03-21T07:36:37.967Z,15.43
2019-03-21T07:39:06.447Z,12.90
2019-03-21T07:41:33.068Z,13.17
2019-03-21T07:43:59.729Z,14.77
2019-03-21T07:46:26.434Z,13.70
2019-03-21T07:48:53.163Z,14.00
2019-03-21T07:51:20.687Z,13.87
2019-03-21T07:53:47.259Z,13.50
2019-03-21T07:56:13.849Z,14.40
2019-03-21T07:58:40.413Z,12.40
2019-03-21T08:01:07.173Z,13.03
2019-03-21T08:03:34.362Z,12.27
2019-03-21T08:06:01.365Z,14.40
2019-03-21T08:08:27.986Z,14.80
2019-03-21T08:10:55.856Z,12.93
2019-03-21T08:13:22.406Z,12.03
2019-03-21T08:15:48.982Z,12.47
2019-03-21T08:18:16.704Z,13.97
2019-03-21T08:20:43.521Z,12.73
2019-03-21T08:23:11.950Z,13.17
2019-03-21T08:25:38.575Z,12.47
2019-03-21T08:28:05.297Z,12.73
2019-03-21T08:30:34.557Z,13.10
2019-03-21T08:33:03.444Z,13.27
2019-03-21T08:35:30.491Z,13.93
2019-03-21T08:37:57.157Z,14.00
2019-03-21T08:40:24.465Z,12.87
2019-03-21T08:42:51.161Z,14.53
2019-03-21T08:45:17.765Z,12.77
2019-03-21T08:47:44.584Z,13.50
2019-03-21T08:50:12.674Z,12.83
2019-03-21T08:52:39.790Z,10.80
2019-03-21T08:55:07.935Z,10.77
2019-03-21T08:57:34.524Z,11.73
2019-03-21T09:00:01.506Z,11.23
2019-03-21T09:02:28.157Z,11.40
2019-03-21T09:04:55.007Z,10.30
2019-03-21T09:07:21.565Z,9.93
2019-03-21T09:11:03.327Z,11.37
2019-03-21T09:13:30.110Z,9.67
2019-03-21T09:15:56.712Z,11.10
2019-03-21T09:18:23.281Z,10.90
2019-03-21T09:20:49.833Z,8.87
2019-03-21T09:23:16.417Z,11.27
2019-03-21T09:25:43.196Z,9.83
2019-03-21T09:28:09.863Z,8.23
2019-03-21T09:30:36.541Z,8.33
2019-03-21T09:33:03.454Z,9.43
2019-03-21T09:35:30.079Z,8.47
2019-03-21T09:37:56.768Z,8.57
2019-03-21T09:40:23.335Z,6.77
2019-03-21T09:42:50.154Z,7.87
2019-03-21T09:45:16.904Z,7.47
2019-03-21T09:47:43.524Z,6.77
2019-03-21T09:50:15.896Z,6.47
2019-03-21T09:52:42.471Z,6.17
2019-03-21T09:55:09.350Z,6.03
2019-03-21T09:57:35.937Z,6.20
2019-03-21T10:00:06.821Z,6.27
2019-03-21T10:02:33.598Z,6.90
2019-03-21T10:05:00.327Z,6.53
2019-03-21T10:07:27.170Z,7.07
2019-03-21T10:12:41.166Z,7.03
2019-03-21T10:15:08.263Z,8.57
2019-03-21T10:17:34.925Z,6.53
2019-03-21T10:20:04.999Z,7.57
2019-03-21T10:22:34.717Z,6.40
2019-03-21T10:25:01.393Z,5.70
2019-03-21T10:27:28.086Z,5.43
2019-03-21T10:29:54.654Z,5.83
2019-03-21T10:32:21.209Z,5.53
2019-03-21T10:34:47.869Z,5.87
2019-03-21T10:37:14.543Z,5.67
2019-03-21T10:39:44.307Z,5.70
2019-03-21T10:42:11.088Z,5.77
2019-03-21T10:44:37.746Z,6.53
2019-03-21T10:47:04.539Z,6.47
2019-03-21T10:49:31.093Z,7.83
2019-03-21T10:51:57.667Z,6.63
2019-03-21T10:54:24.234Z,6.50
2019-03-21T10:56:52.181Z,6.70
2019-03-21T10:59:18.827Z,7.50
2019-03-21T11:01:45.602Z,9.87
2019-03-21T11:04:12.136Z,10.50
2019-03-21T11:06:38.723Z,10.27
2019-03-21T11:09:06.526Z,9.80
2019-03-21T11:11:33.192Z,9.90
2019-03-21T11:13:59.746Z,11.30
2019-03-21T11:16:26.758Z,9.43
2019-03-21T11:18:53.617Z,7.37
2019-03-21T11:21:23.190Z,8.10
2019-03-21T11:23:49.792Z,8.27
2019-03-21T11:26:16.412Z,7.67
2019-03-21T11:28:43.038Z,7.23
2019-03-21T11:31:09.590Z,7.43
2019-03-21T11:33:36.167Z,8.20
2019-03-21T11:36:03.055Z,8.13
2019-03-21T11:38:29.672Z,8.80
2019-03-21T11:40:56.672Z,8.20
2019-03-21T11:43:23.772Z,9.23
2019-03-21T11:45:50.631Z,8.20
2019-03-21T11:48:17.662Z,7.57
2019-03-21T11:50:44.858Z,7.87
2019-03-21T11:53:11.908Z,7.87
2019-03-21T11:55:38.916Z,6.60
2019-03-21T11:58:05.892Z,6.60
2019-03-21T12:00:42.709Z,7.67
2019-03-21T12:03:04.258Z,5.80
2019-03-21T12:05:32.137Z,7.17
2019-03-21T12:07:59.261Z,6.87
2019-03-21T12:10:26.418Z,7.17
2019-03-21T12:12:53.609Z,6.20
2019-03-21T12:15:20.591Z,5.70
2019-03-21T12:17:47.459Z,6.20
2019-03-21T12:20:20.293Z,6.07
2019-03-21T12:22:47.548Z,6.30
2019-03-21T12:25:15.753Z,5.70
2019-03-21T12:27:45.714Z,5.87
2019-03-21T12:30:18.447Z,5.50
2019-03-21T12:32:45.563Z,5.90
2019-03-21T12:35:14.642Z,6.60
2019-03-21T12:37:41.904Z,5.73
2019-03-21T12:40:09.143Z,6.47
2019-03-21T12:42:36.164Z,5.90
2019-03-21T12:45:07.779Z,6.00
2019-03-21T12:47:35.684Z,6.60
2019-03-21T12:50:06.750Z,6.17
2019-03-21T12:52:41.407Z,6.03
2019-03-21T12:55:06.699Z,5.77
2019-03-21T12:57:35.224Z,6.07
2019-03-21T13:00:07.979Z,6.03
2019-03-21T13:02:34.969Z,6.17
2019-03-21T13:05:06.219Z,5.80
2019-03-21T13:07:33.500Z,6.43
2019-03-21T13:10:00.457Z,5.57
2019-03-21T13:12:27.772Z,7.10
2019-03-21T13:14:54.736Z,5.50
2019-03-21T13:17:21.764Z,5.43
2019-03-21T13:19:48.742Z,5.70
2019-03-21T13:22:15.717Z,5.60
2019-03-21T13:24:42.722Z,5.30
2019-03-21T13:27:09.698Z,5.03
2019-03-21T13:29:36.590Z,5.03
2019-03-21T13:32:03.645Z,5.37
2019-03-21T13:34:30.660Z,5.30
2019-03-21T13:36:57.574Z,5.40
2019-03-21T13:39:24.885Z,5.33
2019-03-21T13:41:51.955Z,5.63
2019-03-21T13:44:18.865Z,5.73
2019-03-21T13:46:45.896Z,5.27
2019-03-21T13:49:12.763Z,4.63
2019-03-21T13:51:39.845Z,4.97
2019-03-21T13:54:08.737Z,5.17
2019-03-21T13:56:38.269Z,5.13
2019-03-21T13:59:04.603Z,5.50
2019-03-21T14:01:31.465Z,5.07
2019-03-21T14:03:58.479Z,4.90
2019-03-21T14:07:21.615Z,4.83
2019-03-21T14:09:48.602Z,4.70
2019-03-21T14:12:15.655Z,4.13
2019-03-21T14:14:42.644Z,4.57
2019-03-21T14:17:21.370Z,4.70
2019-03-21T14:19:39.085Z,4.10
2019-03-21T14:22:06.178Z,4.30
2019-03-21T14:24:33.047Z,4.60
2019-03-21T14:27:00.054Z,4.03
2019-03-21T14:29:27.110Z,4.13
2019-03-21T14:31:54.231Z,4.23
2019-03-21T14:34:21.343Z,4.10
2019-03-21T14:36:48.257Z,3.40
2019-03-21T14:39:15.141Z,4.80
2019-03-21T14:41:42.038Z,4.20
2019-03-21T14:44:08.906Z,5.50
2019-03-21T14:46:35.834Z,4.63
2019-03-21T14:49:03.127Z,4.20
2019-03-21T14:51:30.188Z,4.57
2019-03-21T14:53:57.229Z,4.33
2019-03-21T14:56:24.332Z,4.00
2019-03-21T14:58:51.255Z,4.53
2019-03-21T15:01:18.457Z,5.23
2019-03-21T15:03:45.384Z,5.17
2019-03-21T15:06:15.262Z,4.57
2019-03-21T15:08:42.175Z,3.83
2019-03-21T15:11:17.057Z,4.00
2019-03-21T15:13:38.207Z,4.27
2019-03-21T15:16:05.355Z,4.17
2019-03-21T15:18:32.258Z,4.23
2019-03-21T15:20:59.132Z,8.50
2019-03-21T15:23:26.194Z,5.57
2019-03-21T15:25:54.166Z,5.00
2019-03-21T15:28:21.301Z,5.30
2019-03-21T15:30:48.560Z,5.20
2019-03-21T15:33:16.853Z,7.63
2019-03-21T15:35:43.890Z,11.57
2019-03-21T15:38:11.467Z,8.43
2019-03-21T15:40:38.526Z,8.70
2019-03-21T15:43:05.718Z,4.87
2019-03-21T15:45:32.908Z,4.33
2019-03-21T15:48:00.035Z,5.47
2019-03-21T15:50:31.148Z,5.20
2019-03-21T15:52:58.385Z,4.73
2019-03-21T15:55:25.920Z,4.67
2019-03-21T15:57:52.835Z,6.20
2019-03-21T16:00:25.837Z,5.37
2019-03-21T16:02:53.129Z,8.17
2019-03-21T16:05:20.516Z,5.67
2019-03-21T16:07:47.440Z,5.13
2019-03-21T16:10:14.410Z,5.40
2019-03-21T16:12:42.897Z,5.97
2019-03-21T16:15:10.355Z,6.53
2019-03-21T16:17:37.397Z,6.13
2019-03-21T16:20:06.509Z,6.50
2019-03-21T16:22:34.015Z,7.07
2019-03-21T16:25:03.182Z,7.87
2019-03-21T16:27:30.189Z,14.50
2019-03-21T16:29:57.151Z,9.00
2019-03-21T16:32:24.577Z,8.57
2019-03-21T16:34:53.397Z,10.43
2019-03-21T16:38:16.811Z,8.33
2019-03-21T16:40:44.272Z,8.33
2019-03-21T16:43:11.269Z,9.07
2019-03-21T16:45:38.283Z,7.70
2019-03-21T16:48:05.415Z,8.43
2019-03-21T16:50:34.562Z,9.57
2019-03-21T16:53:02.479Z,8.73
2019-03-21T16:55:29.974Z,19.80
2019-03-21T16:57:56.923Z,11.43
2019-03-21T17:00:24.509Z,10.83
2019-03-21T17:02:53.568Z,63.23
2019-03-21T17:05:22.596Z,12.10
2019-03-21T17:07:50.069Z,55.30
2019-03-21T17:10:17.328Z,15.60
2019-03-21T17:12:46.499Z,15.97
2019-03-21T17:15:14.101Z,14.10
2019-03-21T17:17:41.338Z,11.97
2019-03-21T17:20:11.508Z,12.60
2019-03-21T17:22:38.411Z,29.63
2019-03-21T17:25:07.597Z,23.13
2019-03-21T17:27:34.302Z,16.13
2019-03-21T17:30:01.195Z,14.43
2019-03-21T17:32:28.662Z,17.23
2019-03-21T17:34:55.919Z,23.63
2019-03-21T17:37:22.554Z,20.97
2019-03-21T17:39:49.357Z,36.90
2019-03-21T17:42:16.500Z,60.90
2019-03-21T17:44:43.199Z,29.70
2019-03-21T17:47:09.823Z,22.23
2019-03-21T17:49:36.509Z,21.73
2019-03-21T17:52:03.407Z,48.80
2019-03-21T17:54:41.087Z,19.17
2019-03-21T17:56:59.253Z,16.87
2019-03-21T17:59:26.161Z,18.93
2019-03-21T18:01:53.545Z,40.77
2019-03-21T18:04:20.417Z,18.20
2019-03-21T18:06:47.084Z,35.23
2019-03-21T18:09:13.649Z,16.57
2019-03-21T18:11:40.456Z,14.40
2019-03-21T18:14:07.087Z,14.93
2019-03-21T18:16:34.135Z,14.83
2019-03-21T18:19:00.989Z,18.03
2019-03-21T18:21:27.716Z,42.50
2019-03-21T18:23:54.542Z,19.17
2019-03-21T18:26:21.376Z,24.20
2019-03-21T18:28:48.153Z,37.13
2019-03-21T18:31:16.068Z,51.43
2019-03-21T18:33:42.790Z,17.33
2019-03-21T18:36:09.388Z,20.73
2019-03-21T18:38:36.062Z,19.83
2019-03-21T18:41:03.356Z,20.17
2019-03-21T18:43:29.957Z,20.50
2019-03-21T18:45:56.760Z,20.20
2019-03-21T18:48:23.338Z,19.43
2019-03-21T18:50:50.266Z,19.70
2019-03-21T18:53:16.932Z,20.83
2019-03-21T18:55:44.475Z,19.53
2019-03-21T18:58:14.023Z,27.73
2019-03-21T19:00:40.868Z,21.70
2019-03-21T19:03:07.498Z,21.80
2019-03-21T19:05:34.051Z,19.40
2019-03-21T19:08:00.858Z,19.17
2019-03-21T19:10:27.557Z,18.93
2019-03-21T19:12:54.460Z,21.27
2019-03-21T19:15:21.127Z,18.73
2019-03-21T19:17:47.797Z,16.77
2019-03-21T19:20:17.510Z,21.73
2019-03-21T19:22:44.533Z,136.47
2019-03-21T19:25:18.422Z,22.47
2019-03-21T19:27:40.855Z,18.07
2019-03-21T19:30:12.476Z,18.90
2019-03-21T19:32:39.049Z,17.53
2019-03-21T19:35:06.561Z,51.43
2019-03-21T19:37:33.789Z,21.90
2019-03-21T19:40:00.589Z,81.63
2019-03-21T19:42:27.217Z,24.50
2019-03-21T19:44:55.789Z,26.57
2019-03-21T19:47:29.886Z,22.77
2019-03-21T19:49:51.237Z,22.37
2019-03-21T19:52:17.844Z,21.30
2019-03-21T19:54:44.541Z,21.83
2019-03-21T19:57:11.133Z,21.57
2019-03-21T19:59:40.560Z,22.47
2019-03-21T20:02:06.436Z,24.10
2019-03-21T20:04:33.227Z,23.80
2019-03-21T20:06:59.903Z,22.67
2019-03-21T20:09:26.641Z,22.27
2019-03-21T20:11:53.412Z,23.30
2019-03-21T20:14:21.960Z,51.90
2019-03-21T20:16:48.786Z,31.50
2019-03-21T20:19:15.578Z,29.43
2019-03-21T20:21:47.736Z,32.83
2019-03-21T20:24:10.716Z,30.40
2019-03-21T20:26:37.350Z,69.77
2019-03-21T20:29:04.082Z,29.77
2019-03-21T20:31:30.839Z,29.07
2019-03-21T20:33:57.384Z,53.97
2019-03-21T20:36:26.996Z,38.70
2019-03-21T20:38:53.652Z,65.83
2019-03-21T20:41:20.243Z,68.27
2019-03-21T20:43:46.840Z,50.80
2019-03-21T20:46:13.562Z,25.90
2019-03-21T20:48:42.121Z,73.20
2019-03-21T20:51:08.838Z,54.63
2019-03-21T20:53:35.517Z,48.07
2019-03-21T20:56:02.299Z,51.67
2019-03-21T20:58:29.093Z,28.23
2019-03-21T21:00:55.852Z,32.03
2019-03-21T21:03:22.434Z,23.13
2019-03-21T21:05:49.160Z,46.20
2019-03-21T21:08:15.724Z,37.77
2019-03-21T21:10:42.292Z,27.00
2019-03-21T21:13:09.109Z,102.47
2019-03-21T21:15:37.615Z,121.80
2019-03-21T21:18:04.412Z,90.73
2019-03-21T21:20:31.071Z,86.67
2019-03-21T21:22:57.598Z,47.97
2019-03-21T21:25:24.430Z,49.57
2019-03-21T21:27:51.344Z,108.27
2019-03-21T21:30:20.271Z,34.47
2019-03-21T21:32:47.233Z,57.83
2019-03-21T21:35:14.271Z,47.20
2019-03-21T21:37:41.072Z,25.93
2019-03-21T21:40:10.042Z,32.00
2019-03-21T21:42:36.810Z,39.43
2019-03-21T21:45:08.414Z,67.33
2019-03-21T21:47:37.173Z,26.60
2019-03-21T21:50:09.192Z,33.80
2019-03-21T21:52:41.877Z,26.40
2019-03-21T21:55:07.100Z,29.57
2019-03-21T21:57:33.879Z,35.40
2019-03-21T22:00:00.482Z,21.80
2019-03-21T22:02:27.208Z,23.03
2019-03-21T22:04:53.899Z,29.07
2019-03-21T22:07:20.462Z,35.77
2019-03-21T22:09:47.123Z,19.83
2019-03-21T22:12:13.834Z,30.77
2019-03-21T22:14:40.652Z,23.87
2019-03-21T22:17:07.485Z,24.07
2019-03-21T22:19:34.082Z,24.67
2019-03-21T22:22:00.802Z,27.07
2019-03-21T22:24:27.595Z,21.30
2019-03-21T22:26:54.182Z,20.83
2019-03-21T22:29:20.728Z,20.07
2019-03-21T22:31:47.768Z,27.47
2019-03-21T22:34:14.489Z,23.13
2019-03-21T22:36:49.229Z,34.07
2019-03-21T22:39:09.751Z,24.70
2019-03-21T22:41:36.440Z,24.53
2019-03-21T22:44:03.362Z,19.40
2019-03-21T22:46:29.954Z,27.30
2019-03-21T22:48:56.534Z,25.80
2019-03-21T22:51:23.273Z,23.27
2019-03-21T22:53:50.020Z,25.90
2019-03-21T22:56:16.618Z,25.83
2019-03-21T22:58:43.256Z,20.80
2019-03-21T23:01:10.298Z,29.93
2019-03-21T23:03:37.145Z,26.30
2019-03-21T23:06:03.856Z,25.93
2019-03-21T23:08:30.427Z,21.73
2019-03-21T23:10:59.013Z,28.67
2019-03-21T23:13:26.468Z,27.73
2019-03-21T23:15:53.671Z,77.60
2019-03-21T23:18:20.379Z,22.77
2019-03-21T23:20:47.205Z,38.20
2019-03-21T23:23:13.784Z,37.80
2019-03-21T23:25:40.393Z,22.23
2019-03-21T23:28:07.410Z,25.37
2019-03-21T23:30:35.185Z,33.27
2019-03-21T23:33:01.895Z,21.53
2019-03-21T23:35:28.761Z,22.87
2019-03-21T23:37:55.339Z,46.43
2019-03-21T23:40:21.996Z,46.73
2019-03-21T23:42:48.587Z,35.50
2019-03-21T23:45:15.571Z,23.37
2019-03-21T23:47:42.756Z,77.77
2019-03-21T23:50:13.169Z,22.23
2019-03-21T23:52:41.294Z,56.17
2019-03-21T23:55:09.225Z,40.17
2019-03-21T23:57:35.954Z,26.60
